Time;durP1;ratioP1;P1;durP2;ratioP2;P2;SDS_P1;SDS_P2;PMS_P1;PMS_P2;Temp;Humidity;BMP_temperature;BMP_pressure;BME280_temperature;BME280_humidity;BME280_pressure;Samples;Min_cycle;Max_cycle;Signal;HPM_P1;HPM_P2
2022/08/25 00:01:14;;;;;;;4.40;3.33;;;16.40;99.90;;;;;;5071238;28;20032;-38
2022/08/25 00:03:41;;;;;;;3.72;3.28;;;16.40;99.90;;;;;;5063717;28;20032;-36
2022/08/25 00:06:07;;;;;;;4.80;3.80;;;16.40;99.90;;;;;;5091508;28;20250;-37
2022/08/25 00:08:36;;;;;;;4.95;3.40;;;16.60;99.90;;;;;;5083102;28;20162;-36
2022/08/25 00:11:13;;;;;;;5.10;3.35;;;16.60;99.90;;;;;;5086020;28;20492;-38
2022/08/25 00:13:42;;;;;;;4.85;3.33;;;16.60;99.90;;;;;;5089979;28;20169;-38
2022/08/25 00:16:12;;;;;;;3.45;2.50;;;16.50;99.90;;;;;;5090618;28;20028;-39
2022/08/25 00:18:40;;;;;;;2.80;2.60;;;16.20;99.90;;;;;;5087386;28;20028;-39
2022/08/25 00:21:06;;;;;;;3.47;2.95;;;16.10;99.90;;;;;;5088667;28;20112;-39
2022/08/25 00:23:32;;;;;;;4.15;3.10;;;16.10;99.90;;;;;;5085334;28;20039;-39
2022/08/25 00:25:58;;;;;;;4.05;3.22;;;16.20;99.90;;;;;;5082342;28;20066;-36
2022/08/25 00:28:24;;;;;;;6.47;4.20;;;16.30;99.90;;;;;;5086817;28;20074;-37
2022/08/25 00:30:50;;;;;;;4.35;3.35;;;16.40;99.90;;;;;;5084077;28;20060;-38
2022/08/25 00:33:16;;;;;;;3.85;3.40;;;16.50;99.90;;;;;;5089189;28;20489;-38
2022/08/25 00:35:42;;;;;;;5.00;3.47;;;16.30;99.90;;;;;;5084539;28;20124;-38
2022/08/25 00:38:09;;;;;;;6.55;4.00;;;16.30;99.90;;;;;;5087164;28;20016;-37
2022/08/25 00:40:36;;;;;;;6.93;4.20;;;16.20;99.90;;;;;;5083943;28;20028;-38
2022/08/25 00:43:05;;;;;;;6.05;4.30;;;16.20;99.90;;;;;;5088572;28;20032;-38
2022/08/25 00:45:31;;;;;;;6.38;4.13;;;16.20;99.90;;;;;;5082661;28;20431;-38
2022/08/25 00:47:57;;;;;;;4.53;3.78;;;16.30;99.90;;;;;;5089349;28;20424;-38
2022/08/25 00:50:24;;;;;;;5.07;3.13;;;16.20;99.90;;;;;;5086156;28;20071;-37
2022/08/25 00:52:53;;;;;;;3.15;2.80;;;16.30;99.90;;;;;;5087543;28;20488;-37
2022/08/25 00:55:29;;;;;;;4.13;2.80;;;16.30;99.90;;;;;;5086723;28;20099;-39
2022/08/25 00:58:00;;;;;;;2.78;2.30;;;16.30;99.90;;;;;;5089111;28;20370;-39
2022/08/25 01:00:28;;;;;;;3.05;2.53;;;16.30;99.90;;;;;;5085322;28;20032;-32
2022/08/25 01:02:55;;;;;;;4.63;2.95;;;16.20;99.90;;;;;;5087665;28;20044;-32
2022/08/25 01:05:21;;;;;;;6.68;3.75;;;16.10;99.90;;;;;;5085752;28;20035;-33
2022/08/25 01:07:48;;;;;;;3.50;3.20;;;16.20;99.90;;;;;;5088855;28;20085;-34
2022/08/25 01:10:15;;;;;;;4.28;3.38;;;16.20;99.90;;;;;;5081634;28;20035;-32
2022/08/25 01:12:41;;;;;;;3.63;2.92;;;16.20;99.90;;;;;;5080901;28;20161;-32
2022/08/25 01:15:08;;;;;;;3.03;2.72;;;15.90;99.90;;;;;;5086425;28;20525;-33
2022/08/25 01:17:44;;;;;;;4.37;2.27;;;15.90;99.90;;;;;;5088651;28;20381;-32
2022/08/25 01:20:10;;;;;;;2.83;2.10;;;16.00;99.90;;;;;;5070854;28;20048;-32
2022/08/25 01:22:36;;;;;;;2.10;1.90;;;16.00;99.90;;;;;;5088147;28;20516;-33
2022/08/25 01:25:11;;;;;;;1.70;1.60;;;16.00;99.90;;;;;;5090237;28;20488;-32
2022/08/25 01:27:36;;;;;;;2.40;2.20;;;15.80;99.90;;;;;;5087653;28;20020;-33
2022/08/25 01:30:03;;;;;;;3.30;2.75;;;15.70;99.90;;;;;;5084007;28;20413;-32
2022/08/25 01:32:33;;;;;;;7.22;4.15;;;15.60;99.90;;;;;;5085601;28;20146;-32
2022/08/25 01:34:58;;;;;;;5.95;4.10;;;15.60;99.90;;;;;;5087178;28;20036;-33
2022/08/25 01:37:24;;;;;;;5.85;4.55;;;15.70;99.90;;;;;;5086304;28;20105;-34
2022/08/25 01:39:49;;;;;;;7.75;4.45;;;15.80;99.90;;;;;;5086424;28;20050;-32
2022/08/25 01:42:37;;;;;;;7.15;5.50;;;15.80;99.90;;;;;;5086725;28;20036;-32
2022/08/25 01:45:04;;;;;;;6.00;3.63;;;15.80;99.90;;;;;;5085678;28;20085;-32
2022/08/25 01:47:30;;;;;;;3.90;3.28;;;15.80;99.90;;;;;;5083978;28;20456;-32
2022/08/25 01:49:56;;;;;;;4.60;2.38;;;15.90;99.90;;;;;;5083226;28;20521;-32
2022/08/25 01:52:31;;;;;;;1.65;1.55;;;15.80;99.90;;;;;;5087597;28;20102;-32
2022/08/25 01:54:57;;;;;;;2.75;1.83;;;15.60;99.90;;;;;;5085067;28;20449;-31
2022/08/25 01:57:23;;;;;;;2.70;2.30;;;15.40;99.90;;;;;;5087473;28;20055;-32
2022/08/25 01:59:49;;;;;;;6.38;4.55;;;15.40;99.90;;;;;;5086482;28;20063;-32
2022/08/25 02:02:14;;;;;;;7.93;5.15;;;15.30;99.90;;;;;;5084792;28;20032;-34
2022/08/25 02:04:40;;;;;;;8.93;6.13;;;15.40;99.90;;;;;;5086361;28;20036;-32
2022/08/25 02:07:07;;;;;;;9.85;6.28;;;15.50;99.90;;;;;;5085238;28;20063;-32
2022/08/25 02:09:35;;;;;;;8.20;5.65;;;15.50;99.90;;;;;;5086600;28;20031;-31
2022/08/25 02:12:01;;;;;;;8.82;5.13;;;15.40;99.90;;;;;;5082617;28;20070;-33
2022/08/25 02:14:27;;;;;;;8.07;5.05;;;15.20;99.90;;;;;;5086259;28;20056;-32
2022/08/25 02:16:54;;;;;;;4.75;3.80;;;15.20;99.90;;;;;;5088032;28;20028;-32
2022/08/25 02:19:22;;;;;;;5.38;3.78;;;15.30;99.90;;;;;;5085288;28;20044;-33
2022/08/25 02:21:49;;;;;;;4.88;3.70;;;15.40;99.90;;;;;;5081303;28;20044;-32
2022/08/25 02:24:15;;;;;;;2.97;2.58;;;15.50;99.90;;;;;;5087078;28;20486;-34
2022/08/25 02:26:42;;;;;;;2.50;2.25;;;15.60;99.90;;;;;;5082313;28;20146;-32
2022/08/25 02:29:08;;;;;;;3.25;2.50;;;15.60;99.90;;;;;;5086517;28;20031;-31
2022/08/25 02:31:34;;;;;;;3.65;2.78;;;15.60;99.90;;;;;;5086607;28;20042;-32
2022/08/25 02:34:01;;;;;;;3.30;2.40;;;15.60;99.90;;;;;;5087080;28;20028;-32
2022/08/25 02:36:27;;;;;;;4.07;2.97;;;15.60;99.90;;;;;;5085286;28;20053;-32
2022/08/25 02:38:52;;;;;;;5.25;3.63;;;15.40;99.90;;;;;;5083733;28;20020;-33
2022/08/25 02:41:22;;;;;;;3.38;2.60;;;15.30;99.90;;;;;;5084019;28;20597;-32
2022/08/25 02:43:48;;;;;;;3.97;3.38;;;15.20;99.90;;;;;;5087602;28;20031;-33
2022/08/25 02:46:15;;;;;;;4.05;3.05;;;15.20;99.90;;;;;;5086313;28;20748;-32
2022/08/25 02:48:41;;;;;;;4.00;3.03;;;15.00;99.90;;;;;;5077957;28;20085;-34
2022/08/25 02:51:09;;;;;;;7.40;1.80;;;15.00;99.90;;;;;;5088436;28;20501;-32
2022/08/25 02:53:39;;;;;;;3.00;2.50;;;14.80;99.90;;;;;;5086941;28;20028;-32
2022/08/25 02:56:10;;;;;;;4.22;3.22;;;14.40;99.90;;;;;;5069484;28;20442;-32
2022/08/25 02:58:36;;;;;;;4.78;3.80;;;14.50;99.90;;;;;;5083676;28;20043;-32
2022/08/25 03:01:02;;;;;;;6.88;4.43;;;14.60;99.90;;;;;;5087300;28;20132;-32
2022/08/25 03:03:28;;;;;;;8.65;5.35;;;14.80;99.90;;;;;;5087361;28;20099;-31
2022/08/25 03:05:55;;;;;;;7.10;5.20;;;14.90;99.90;;;;;;5083430;28;20110;-34
2022/08/25 03:08:20;;;;;;;8.02;4.72;;;15.10;99.90;;;;;;5087608;28;20031;-32
2022/08/25 03:10:46;;;;;;;5.70;4.18;;;15.10;99.90;;;;;;5081486;28;20058;-36
2022/08/25 03:13:12;;;;;;;7.00;4.68;;;15.20;99.90;;;;;;5087545;28;20083;-35
2022/08/25 03:15:38;;;;;;;7.43;5.13;;;15.20;99.90;;;;;;5084717;28;20025;-33
2022/08/25 03:18:04;;;;;;;8.88;5.25;;;15.30;99.90;;;;;;5086622;28;20024;-32
2022/08/25 03:20:30;;;;;;;11.13;5.85;;;15.30;99.90;;;;;;5091922;28;20066;-32
2022/08/25 03:22:56;;;;;;;6.15;4.65;;;15.30;99.90;;;;;;5068518;28;20450;-34
2022/08/25 03:28:07;;;;;;;7.13;4.80;;;15.40;99.90;;;;;;5087440;28;20736;-32
2022/08/25 03:30:33;;;;;;;6.45;4.50;;;15.40;99.90;;;;;;5092221;28;20020;-32
2022/08/25 03:32:59;;;;;;;9.50;6.53;;;15.40;99.90;;;;;;5066946;28;20561;-34
2022/08/25 03:35:25;;;;;;;9.02;6.38;;;15.30;99.90;;;;;;5089348;28;20032;-33
2022/08/25 03:37:55;;;;;;;6.47;4.95;;;15.20;99.90;;;;;;5087619;28;20035;-32
2022/08/25 03:40:22;;;;;;;6.20;3.65;;;15.20;99.90;;;;;;5089959;28;20028;-31
2022/08/25 03:42:48;;;;;;;5.10;3.75;;;15.00;99.90;;;;;;5088841;28;20103;-34
2022/08/25 03:45:16;;;;;;;4.85;3.65;;;15.10;99.90;;;;;;5086347;28;20016;-32
2022/08/25 03:47:44;;;;;;;3.45;2.58;;;15.10;99.90;;;;;;5088019;28;20020;-33
2022/08/25 03:50:11;;;;;;;1.38;1.27;;;15.10;99.90;;;;;;5088736;28;20035;-32
2022/08/25 03:52:37;;;;;;;2.38;1.73;;;15.00;99.90;;;;;;5089892;28;20035;-37
2022/08/25 03:55:08;;;;;;;4.75;3.38;;;15.00;99.90;;;;;;5087741;28;20020;-34
2022/08/25 03:57:34;;;;;;;4.13;2.97;;;15.00;99.90;;;;;;5090191;28;20465;-32
2022/08/25 04:00:00;;;;;;;2.97;2.67;;;15.10;99.90;;;;;;5087066;28;20073;-32
2022/08/25 04:02:25;;;;;;;2.35;1.90;;;15.10;99.90;;;;;;5089556;28;20036;-34
2022/08/25 04:04:51;;;;;;;65.45;5.25;;;15.10;99.90;;;;;;5084972;28;20055;-32
2022/08/25 04:07:17;;;;;;;6.97;3.70;;;15.10;99.90;;;;;;5090123;28;20077;-33
2022/08/25 04:09:42;;;;;;;10.02;3.35;;;14.90;99.90;;;;;;5091055;28;20024;-32
2022/08/25 04:12:08;;;;;;;4.35;3.28;;;14.70;99.90;;;;;;5087945;28;20396;-32
2022/08/25 04:14:34;;;;;;;6.70;4.60;;;14.60;99.90;;;;;;5085342;28;20035;-32
2022/08/25 04:16:59;;;;;;;6.90;4.97;;;14.60;99.90;;;;;;5085017;28;20052;-32
2022/08/25 04:19:26;;;;;;;10.57;6.05;;;14.70;99.90;;;;;;5066394;28;20048;-32
2022/08/25 04:21:51;;;;;;;9.50;6.20;;;14.80;99.90;;;;;;5090187;28;20032;-32
2022/08/25 04:24:18;;;;;;;7.93;5.13;;;14.90;99.90;;;;;;5089936;28;20038;-32
2022/08/25 04:26:49;;;;;;;6.75;4.10;;;15.00;99.90;;;;;;5088694;28;20020;-32
2022/08/25 04:29:17;;;;;;;5.95;4.20;;;15.10;99.90;;;;;;5088453;28;20865;-34
2022/08/25 04:31:45;;;;;;;;;;;15.10;99.90;;;;;;5087088;28;20036;-32
2022/08/25 04:34:12;;;;;;;6.53;4.75;;;15.10;99.90;;;;;;5082537;28;19911;-32
2022/08/25 04:36:38;;;;;;;5.65;4.65;;;15.10;99.90;;;;;;5082638;28;20080;-32
2022/08/25 04:39:03;;;;;;;6.18;4.68;;;15.10;99.90;;;;;;5090463;28;20485;-32
2022/08/25 04:41:30;;;;;;;7.30;4.45;;;15.10;99.90;;;;;;5089308;28;20046;-33
2022/08/25 04:43:57;;;;;;;8.15;5.20;;;15.00;99.90;;;;;;5083011;28;20165;-33
2022/08/25 04:46:27;;;;;;;11.13;6.97;;;15.10;99.90;;;;;;5089517;28;20032;-37
2022/08/25 04:48:55;;;;;;;12.73;7.80;;;15.10;99.90;;;;;;5090020;28;20032;-33
2022/08/25 04:51:40;;;;;;;12.65;8.00;;;15.10;99.90;;;;;;5088815;28;20024;-32
2022/08/25 04:54:11;;;;;;;12.70;8.27;;;15.10;99.90;;;;;;5083811;28;20044;-31
2022/08/25 04:56:39;;;;;;;14.85;8.63;;;15.10;99.90;;;;;;5088741;28;20373;-31
2022/08/25 04:59:12;;;;;;;;;;;15.00;99.90;;;;;;5090642;28;20024;-31
2022/08/25 05:01:38;;;;;;;13.40;7.90;;;15.00;99.90;;;;;;5088042;28;19912;-31
2022/08/25 05:04:06;;;;;;;10.55;6.65;;;15.10;99.90;;;;;;5087360;28;20043;-31
2022/08/25 05:06:32;;;;;;;9.48;6.55;;;15.20;99.90;;;;;;5088799;28;20032;-32
2022/08/25 05:08:58;;;;;;;4.05;3.65;;;15.30;99.90;;;;;;5090092;28;20043;-31
2022/08/25 05:11:25;;;;;;;3.63;3.03;;;15.40;99.90;;;;;;5085867;28;20373;-31
2022/08/25 05:13:52;;;;;;;5.60;3.75;;;15.40;99.90;;;;;;5088332;28;20024;-31
2022/08/25 05:16:20;;;;;;;5.45;4.63;;;15.40;99.90;;;;;;5089724;28;20035;-31
2022/08/25 05:18:47;;;;;;;4.20;3.47;;;15.50;99.90;;;;;;5089772;28;20032;-31
2022/08/25 05:21:16;;;;;;;11.60;6.88;;;15.50;99.90;;;;;;5089560;28;20281;-35
2022/08/25 05:23:42;;;;;;;6.75;5.00;;;15.60;99.90;;;;;;5067833;28;20032;-31
2022/08/25 05:26:13;;;;;;;5.90;3.95;;;15.30;99.90;;;;;;5086076;28;20036;-31
2022/08/25 05:28:40;;;;;;;6.60;4.40;;;14.80;99.90;;;;;;5086803;28;20119;-32
2022/08/25 05:31:07;;;;;;;9.88;5.50;;;14.80;99.90;;;;;;5088459;28;20047;-31
2022/08/25 05:33:34;;;;;;;8.68;5.40;;;14.90;99.90;;;;;;5085984;28;20103;-36
2022/08/25 05:35:59;;;;;;;7.43;5.70;;;15.00;99.90;;;;;;5084984;28;20028;-35
2022/08/25 05:38:25;;;;;;;8.77;5.78;;;15.20;99.90;;;;;;5087047;28;20032;-33
2022/08/25 05:41:02;;;;;;;10.38;5.90;;;15.30;99.90;;;;;;5085611;28;20141;-33
2022/08/25 05:43:28;;;;;;;7.75;5.88;;;15.40;99.90;;;;;;5087035;28;20085;-31
2022/08/25 05:45:56;;;;;;;13.32;7.35;;;15.60;99.90;;;;;;5079906;28;20035;-31
2022/08/25 05:48:23;;;;;;;9.63;7.03;;;15.80;99.90;;;;;;5087716;28;20031;-32
2022/08/25 05:51:00;;;;;;;15.98;8.60;;;15.90;99.90;;;;;;5089191;28;20044;-35
2022/08/25 05:53:28;;;;;;;14.32;8.95;;;16.00;99.90;;;;;;5085472;28;20036;-32
2022/08/25 05:55:55;;;;;;;16.90;9.70;;;16.20;99.90;;;;;;5080467;28;20055;-35
2022/08/25 05:58:22;;;;;;;16.33;9.43;;;16.20;99.90;;;;;;5085891;28;20055;-32
2022/08/25 06:00:48;;;;;;;15.50;9.75;;;16.30;99.90;;;;;;5063913;28;20251;-31
2022/08/25 06:03:14;;;;;;;16.95;10.35;;;16.40;99.90;;;;;;5086706;28;20466;-32
2022/08/25 06:05:40;;;;;;;17.13;9.75;;;16.50;99.90;;;;;;5083390;28;20048;-31
2022/08/25 06:08:06;;;;;;;13.90;9.57;;;16.60;99.90;;;;;;5080052;28;20092;-31
2022/08/25 06:10:32;;;;;;;15.23;9.68;;;16.80;99.90;;;;;;5082673;28;20029;-34
2022/08/25 06:12:58;;;;;;;16.85;9.93;;;16.90;99.90;;;;;;5088325;28;20020;-31
2022/08/25 06:15:24;;;;;;;17.65;10.00;;;17.20;99.90;;;;;;5087458;28;20077;-32
2022/08/25 06:17:51;;;;;;;14.35;9.00;;;17.30;99.90;;;;;;5069745;28;20063;-32
2022/08/25 06:20:22;;;;;;;14.55;9.52;;;17.50;99.90;;;;;;5085714;28;20075;-32
2022/08/25 06:22:49;;;;;;;12.85;9.02;;;17.70;99.90;;;;;;5085503;28;20032;-32
2022/08/25 06:25:17;;;;;;;16.52;9.48;;;17.90;99.90;;;;;;5089612;28;20054;-31
2022/08/25 06:27:43;;;;;;;11.98;8.68;;;18.10;99.90;;;;;;5088012;28;20074;-32
2022/08/25 06:30:13;;;;;;;14.20;9.18;;;18.20;99.90;;;;;;5087161;28;20121;-34
2022/08/25 06:32:41;;;;;;;14.20;8.45;;;18.40;99.90;;;;;;5086831;28;20032;-33
2022/08/25 06:35:10;;;;;;;15.95;9.50;;;18.40;99.90;;;;;;5089051;28;20108;-34
2022/08/25 06:37:36;;;;;;;14.52;9.18;;;18.40;99.90;;;;;;5085332;28;20028;-32
2022/08/25 06:40:05;;;;;;;14.68;9.00;;;18.40;99.90;;;;;;5088615;28;20159;-32
2022/08/25 06:42:31;;;;;;;13.88;7.82;;;18.50;99.90;;;;;;5085682;28;20016;-32
2022/08/25 06:44:57;;;;;;;12.10;7.43;;;18.60;99.90;;;;;;5059913;28;20032;-34
2022/08/25 06:47:22;;;;;;;12.18;7.57;;;18.80;99.90;;;;;;5089118;28;20109;-32
2022/08/25 06:49:48;;;;;;;15.07;8.30;;;18.80;99.90;;;;;;5089448;28;20499;-34
2022/08/25 06:52:14;;;;;;;12.30;7.88;;;18.90;99.90;;;;;;5069578;28;20115;-32
2022/08/25 06:54:40;;;;;;;13.18;7.50;;;19.00;99.90;;;;;;5089619;28;20031;-32
2022/08/25 06:57:06;;;;;;;10.23;7.40;;;19.10;99.90;;;;;;5089203;28;21491;-32
2022/08/25 06:59:36;;;;;;;13.65;8.23;;;19.10;99.90;;;;;;5093822;28;20023;-33
2022/08/25 07:02:04;;;;;;;13.85;7.35;;;19.30;99.90;;;;;;5082281;28;20036;-33
2022/08/25 07:04:30;;;;;;;13.07;7.20;;;19.30;99.90;;;;;;5088264;28;20114;-34
2022/08/25 07:06:56;;;;;;;10.50;7.38;;;19.40;99.90;;;;;;5090457;28;20115;-36
2022/08/25 07:09:21;;;;;;;12.48;8.00;;;19.40;99.90;;;;;;5081439;28;20623;-35
2022/08/25 07:11:47;;;;;;;13.32;8.23;;;19.50;99.90;;;;;;5087286;28;20030;-32
2022/08/25 07:14:15;;;;;;;11.15;7.53;;;19.50;99.90;;;;;;5088016;28;20032;-32
2022/08/25 07:16:41;;;;;;;12.02;7.18;;;19.50;99.90;;;;;;5092482;28;20036;-32
2022/08/25 07:19:07;;;;;;;10.70;7.30;;;19.60;99.90;;;;;;5089085;28;20082;-33
2022/08/25 07:21:35;;;;;;;10.98;7.72;;;19.60;99.90;;;;;;5092666;28;20031;-32
2022/08/25 07:24:04;;;;;;;9.68;6.82;;;19.70;99.90;;;;;;5085851;28;20036;-32
2022/08/25 07:26:33;;;;;;;11.75;6.93;;;19.80;99.90;;;;;;5092356;28;20047;-32
2022/08/25 07:29:00;;;;;;;11.02;7.25;;;19.80;99.90;;;;;;5091998;28;20393;-35
2022/08/25 07:31:26;;;;;;;11.82;6.90;;;19.80;99.90;;;;;;5085705;28;20043;-35
2022/08/25 07:36:35;;;;;;;12.82;7.38;;;19.90;99.90;;;;;;5091737;28;20089;-32
2022/08/25 07:39:04;;;;;;;10.55;7.22;;;20.00;99.90;;;;;;5090817;28;20036;-31
2022/08/25 07:41:37;;;;;;;9.77;6.93;;;20.00;99.90;;;;;;5082855;28;20477;-32
2022/08/25 07:44:04;;;;;;;10.10;7.10;;;20.10;99.90;;;;;;5088730;28;20059;-33
2022/08/25 07:46:29;;;;;;;9.95;6.50;;;20.20;99.90;;;;;;5062871;28;20032;-33
2022/08/25 07:48:55;;;;;;;9.30;6.78;;;20.30;99.90;;;;;;5087864;28;20389;-34
2022/08/25 07:51:21;;;;;;;9.95;7.13;;;20.40;99.90;;;;;;5086658;28;20560;-32
2022/08/25 07:53:46;;;;;;;9.50;6.30;;;20.50;99.90;;;;;;5087923;28;20081;-32
2022/08/25 07:56:14;;;;;;;10.15;6.43;;;20.60;99.90;;;;;;5089475;28;20025;-32
2022/08/25 07:58:41;;;;;;;;;;;20.70;99.90;;;;;;5089573;28;20020;-31
2022/08/25 08:01:12;;;;;;;9.15;6.57;;;20.70;99.90;;;;;;5071577;28;19923;-32
2022/08/25 08:03:38;;;;;;;10.85;6.18;;;20.80;99.90;;;;;;5090352;28;20024;-33
2022/08/25 08:06:10;;;;;;;8.45;5.95;;;20.90;99.90;;;;;;5090349;28;20028;-34
2022/08/25 08:08:37;;;;;;;10.63;6.78;;;20.90;99.90;;;;;;5088833;28;20035;-32
2022/08/25 08:11:03;;;;;;;8.40;6.10;;;21.10;99.90;;;;;;5089898;28;20036;-33
2022/08/25 08:13:29;;;;;;;10.10;6.25;;;21.30;99.90;;;;;;5089820;28;20231;-32
2022/08/25 08:15:54;;;;;;;8.73;6.63;;;21.30;99.90;;;;;;5090778;28;20031;-32
2022/08/25 08:18:20;;;;;;;8.38;6.03;;;21.30;99.90;;;;;;5091568;28;20043;-32
2022/08/25 08:20:47;;;;;;;8.38;6.03;;;21.30;99.90;;;;;;5090344;28;20066;-32
2022/08/25 08:23:14;;;;;;;8.07;6.25;;;21.40;99.90;;;;;;5088410;28;20032;-32
2022/08/25 08:25:40;;;;;;;7.20;5.13;;;21.60;99.90;;;;;;5085125;28;20024;-32
2022/08/25 08:28:06;;;;;;;9.13;6.22;;;21.70;99.90;;;;;;5085758;28;20036;-31
2022/08/25 08:30:31;;;;;;;6.25;5.55;;;21.80;99.90;;;;;;5084163;28;20028;-32
2022/08/25 08:32:57;;;;;;;8.35;5.55;;;21.70;99.90;;;;;;5090027;28;20043;-33
2022/08/25 08:35:23;;;;;;;7.65;5.63;;;21.70;99.90;;;;;;5073196;28;20024;-31
2022/08/25 08:37:48;;;;;;;7.25;5.50;;;21.80;99.90;;;;;;5070899;28;20032;-33
2022/08/25 08:40:17;;;;;;;6.13;5.25;;;21.90;99.90;;;;;;5090799;28;20036;-34
2022/08/25 08:43:05;;;;;;;6.57;5.40;;;22.00;99.90;;;;;;5081364;28;20082;-33
2022/08/25 08:45:51;;;;;;;6.28;4.45;;;22.30;99.90;;;;;;5087816;28;20046;-32
2022/08/25 08:48:17;;;;;;;5.78;4.82;;;22.40;99.90;;;;;;5091023;28;20028;-32
2022/08/25 08:51:07;;;;;;;6.28;4.78;;;22.50;99.90;;;;;;5089852;28;20032;-32
2022/08/25 08:53:36;;;;;;;5.80;4.30;;;22.40;99.90;;;;;;5087046;28;20090;-31
2022/08/25 08:56:08;;;;;;;6.82;4.88;;;22.50;99.90;;;;;;5091548;28;20027;-33
2022/08/25 08:58:42;;;;;;;5.88;4.60;;;22.60;99.90;;;;;;5087852;28;20024;-32
2022/08/25 09:01:11;;;;;;;6.85;4.60;;;22.70;99.90;;;;;;5086240;28;20103;-32
2022/08/25 09:03:40;;;;;;;6.65;4.40;;;22.90;99.90;;;;;;5084550;28;20107;-31
2022/08/25 09:06:10;;;;;;;7.80;4.57;;;22.90;99.90;;;;;;5091587;28;20064;-31
2022/08/25 09:08:38;;;;;;;6.47;4.60;;;23.00;99.90;;;;;;5085175;28;20047;-31
2022/08/25 09:11:29;;;;;;;4.82;4.20;;;22.90;99.90;;;;;;5088517;28;20043;-31
2022/08/25 09:14:09;;;;;;;5.20;4.25;;;22.90;99.90;;;;;;5080864;28;20569;-34
2022/08/25 09:17:01;;;;;;;5.22;4.20;;;23.00;99.90;;;;;;5081028;28;20474;-32
2022/08/25 09:19:28;;;;;;;5.75;4.43;;;23.10;99.90;;;;;;5070456;28;20085;-36
2022/08/25 09:22:08;;;;;;;5.63;4.03;;;23.20;99.90;;;;;;5090477;28;20024;-31
2022/08/25 09:24:57;;;;;;;4.88;4.38;;;23.30;99.90;;;;;;5084884;28;20052;-31
2022/08/25 09:27:39;;;;;;;5.90;4.90;;;23.40;99.90;;;;;;5070718;28;20042;-31
2022/08/25 09:30:10;;;;;;;5.05;4.43;;;23.30;99.90;;;;;;5088917;28;20134;-31
2022/08/25 09:32:44;;;;;;;5.97;4.47;;;23.30;99.90;;;;;;5087251;28;20044;-31
2022/08/25 09:35:24;;;;;;;6.10;4.15;;;23.40;99.90;;;;;;5084636;28;20037;-32
2022/08/25 09:38:12;;;;;;;6.07;4.90;;;23.50;99.90;;;;;;5087855;28;20081;-32
2022/08/25 09:40:43;;;;;;;6.32;4.07;;;23.60;97.00;;;;;;5070995;28;20031;-32
2022/08/25 09:43:29;;;;;;;5.95;4.15;;;23.70;98.50;;;;;;5088569;28;20035;-33
2022/08/25 09:45:59;;;;;;;7.47;4.15;;;23.60;99.90;;;;;;5088323;28;20031;-30
2022/08/25 09:48:37;;;;;;;4.88;4.05;;;23.80;96.40;;;;;;5087396;28;20020;-30
2022/08/25 09:51:30;;;;;;;5.45;4.35;;;24.00;97.10;;;;;;5081453;28;20052;-31
2022/08/25 09:54:11;;;;;;;4.15;3.42;;;24.10;97.30;;;;;;5078053;28;20048;-32
2022/08/25 09:57:00;;;;;;;5.18;4.32;;;24.20;95.10;;;;;;5089449;28;20020;-33
2022/08/25 09:59:33;;;;;;;4.90;4.20;;;24.10;94.30;;;;;;5080373;28;20405;-32
2022/08/25 10:02:01;;;;;;;5.10;4.18;;;24.30;97.50;;;;;;5088812;28;20451;-32
2022/08/25 10:04:31;;;;;;;4.88;3.67;;;24.40;97.10;;;;;;5082269;28;20035;-32
2022/08/25 10:06:59;;;;;;;5.18;4.30;;;24.40;94.00;;;;;;5088696;28;20526;-31
2022/08/25 10:09:33;;;;;;;6.22;4.47;;;24.50;92.50;;;;;;5050308;28;20158;-32
2022/08/25 10:12:01;;;;;;;5.72;4.40;;;24.50;93.50;;;;;;5082786;28;20156;-32
2022/08/25 10:14:30;;;;;;;4.75;4.05;;;24.40;91.10;;;;;;5067051;28;20028;-32
2022/08/25 10:17:23;;;;;;;5.72;4.57;;;24.40;93.30;;;;;;5072409;28;20084;-33
2022/08/25 10:20:09;;;;;;;6.15;4.45;;;24.70;94.10;;;;;;5087581;28;20044;-32
2022/08/25 10:22:35;;;;;;;5.22;4.40;;;24.70;93.70;;;;;;5081873;28;20020;-33
2022/08/25 10:25:06;;;;;;;5.00;4.28;;;24.70;93.50;;;;;;5085563;28;20046;-32
2022/08/25 10:27:51;;;;;;;7.55;4.32;;;24.50;90.80;;;;;;5090516;28;20106;-35
2022/08/25 10:30:26;;;;;;;4.32;3.78;;;24.70;90.10;;;;;;5083574;28;20027;-32
2022/08/25 10:33:14;;;;;;;4.13;3.72;;;24.80;88.80;;;;;;5067110;28;20021;-32
2022/08/25 10:36:00;;;;;;;4.68;3.72;;;24.90;89.10;;;;;;5085630;28;20031;-32
2022/08/25 10:38:37;;;;;;;4.57;3.80;;;24.90;90.30;;;;;;5089408;28;20034;-33
2022/08/25 10:41:25;;;;;;;4.68;4.22;;;25.10;86.40;;;;;;5085545;28;20028;-35
2022/08/25 10:44:05;;;;;;;4.78;4.15;;;25.20;83.30;;;;;;5084010;28;20116;-32
2022/08/25 10:46:55;;;;;;;4.30;3.90;;;25.30;88.90;;;;;;5089459;28;20384;-32
2022/08/25 10:49:32;;;;;;;6.63;4.45;;;25.20;92.30;;;;;;5081034;28;20482;-33
2022/08/25 10:52:09;;;;;;;5.18;3.67;;;25.20;85.00;;;;;;5088050;28;20034;-32
2022/08/25 10:54:44;;;;;;;6.07;3.90;;;25.30;87.30;;;;;;5088300;28;20036;-32
2022/08/25 10:57:33;;;;;;;4.40;3.72;;;25.60;90.80;;;;;;5086222;28;20439;-34
2022/08/25 11:00:16;;;;;;;7.10;3.85;;;25.80;86.40;;;;;;5088130;28;20056;-34
2022/08/25 11:03:00;;;;;;;5.03;4.00;;;25.50;79.60;;;;;;5088656;28;20385;-33
2022/08/25 11:05:35;;;;;;;4.95;4.13;;;25.40;81.20;;;;;;5067982;28;20036;-32
2022/08/25 11:08:21;;;;;;;4.72;3.90;;;25.50;82.70;;;;;;5088438;28;20036;-32
2022/08/25 11:11:08;;;;;;;7.72;4.32;;;25.60;79.00;;;;;;5081558;28;20598;-32
2022/08/25 11:13:51;;;;;;;5.03;4.10;;;25.50;82.30;;;;;;5084954;28;20028;-32
2022/08/25 11:16:37;;;;;;;6.07;4.55;;;25.50;78.90;;;;;;5086939;28;20036;-34
2022/08/25 11:19:03;;;;;;;6.40;4.40;;;25.70;81.30;;;;;;5089459;28;20032;-32
2022/08/25 11:21:47;;;;;;;6.07;4.30;;;25.60;82.10;;;;;;5088388;28;20024;-34
2022/08/25 11:24:37;;;;;;;5.13;3.90;;;25.70;80.30;;;;;;5082590;28;20171;-31
2022/08/25 11:27:05;;;;;;;4.43;3.92;;;25.70;84.30;;;;;;5086054;28;20035;-35
2022/08/25 11:29:35;;;;;;;5.57;4.50;;;25.70;83.20;;;;;;5087806;28;20033;-33
2022/08/25 11:32:02;;;;;;;6.45;4.18;;;25.70;81.10;;;;;;5088108;28;20043;-35
2022/08/25 11:34:35;;;;;;;4.10;3.65;;;25.90;82.60;;;;;;5085191;28;20024;-32
2022/08/25 11:37:13;;;;;;;6.20;4.32;;;25.80;78.40;;;;;;5090423;28;20373;-32
2022/08/25 11:39:52;;;;;;;5.88;4.20;;;25.80;77.20;;;;;;5086189;28;20027;-32
2022/08/25 11:42:29;;;;;;;5.38;4.25;;;26.00;77.50;;;;;;5069802;28;21444;-32
2022/08/25 11:45:44;;;;;;;7.50;4.88;;;25.80;77.10;;;;;;5085468;28;20036;-34
2022/08/25 11:48:21;;;;;;;5.82;4.65;;;25.80;80.00;;;;;;4979480;28;20492;-32
2022/08/25 11:51:31;;;;;;;5.40;4.53;;;26.00;78.00;;;;;;5090061;28;20411;-32
2022/08/25 11:54:16;;;;;;;6.55;4.55;;;25.90;86.20;;;;;;5071214;28;20043;-34
2022/08/25 11:56:49;;;;;;;5.63;4.43;;;25.90;77.20;;;;;;5089875;28;20472;-33
2022/08/25 11:59:59;;;;;;;5.07;4.25;;;26.10;79.60;;;;;;5090774;28;20370;-34
2022/08/25 12:02:38;;;;;;;5.78;4.38;;;26.20;81.40;;;;;;5074322;28;20216;-32
2022/08/25 12:05:24;;;;;;;7.85;5.32;;;26.20;80.60;;;;;;5080200;28;20028;-32
2022/08/25 12:08:37;;;;;;;7.88;5.32;;;26.20;87.60;;;;;;5063435;28;20465;-32
2022/08/25 12:10:59;;;;;;;7.65;5.57;;;26.40;91.40;;;;;;5090657;28;20535;-33
2022/08/25 12:13:36;;;;;;;4.88;4.28;;;26.60;81.90;;;;;;5071053;28;20477;-36
2022/08/25 12:16:04;;;;;;;8.15;4.88;;;26.60;74.10;;;;;;5085481;28;20115;-32
2022/08/25 12:18:29;;;;;;;5.07;4.57;;;26.80;78.50;;;;;;5084280;28;20032;-30
2022/08/25 12:20:55;;;;;;;7.38;5.30;;;27.10;76.10;;;;;;5084820;28;20044;-31
2022/08/25 12:23:37;;;;;;;6.72;5.13;;;27.10;83.50;;;;;;5092309;28;20024;-31
2022/08/25 12:26:40;;;;;;;5.70;5.10;;;27.10;78.40;;;;;;5082164;28;20499;-31
2022/08/25 12:29:09;;;;;;;6.60;4.70;;;26.90;76.10;;;;;;5068650;28;20035;-32
2022/08/25 12:32:10;;;;;;;6.20;4.68;;;27.00;76.50;;;;;;5087841;28;20025;-31
2022/08/25 12:34:47;;;;;;;8.60;4.68;;;27.10;73.30;;;;;;5067307;28;20047;-32
2022/08/25 12:37:20;;;;;;;5.25;4.75;;;27.20;72.30;;;;;;5091286;28;20032;-31
2022/08/25 12:39:49;;;;;;;7.40;5.07;;;27.20;67.80;;;;;;5074124;28;20024;-35
2022/08/25 12:42:42;;;;;;;4.85;4.28;;;26.90;65.70;;;;;;5088181;28;20024;-31
2022/08/25 12:45:19;;;;;;;5.45;4.80;;;26.80;74.00;;;;;;5084940;28;20052;-32
2022/08/25 12:47:47;;;;;;;6.53;5.13;;;26.90;69.20;;;;;;5071506;28;20447;-31
2022/08/25 12:50:28;;;;;;;;;;;26.90;71.80;;;;;;5065509;28;20028;-34
2022/08/25 12:52:56;;;;;;;5.82;4.90;;;26.90;67.60;;;;;;5075233;28;19908;-32
2022/08/25 12:55:25;;;;;;;;;;;26.80;69.50;;;;;;5073557;28;20016;-30
2022/08/25 12:57:57;;;;;;;5.93;4.40;;;26.80;68.90;;;;;;5084167;28;20034;-31
2022/08/25 13:00:31;;;;;;;9.40;5.10;;;26.80;67.80;;;;;;5070632;28;20024;-33
2022/08/25 13:03:09;;;;;;;6.07;4.57;;;27.00;66.90;;;;;;5069891;28;20473;-34
2022/08/25 13:05:35;;;;;;;7.05;5.10;;;27.00;73.60;;;;;;5085240;28;20541;-33
2022/08/25 13:08:28;;;;;;;5.20;4.22;;;27.10;72.30;;;;;;5089552;28;20081;-31
2022/08/25 13:11:00;;;;;;;4.60;3.72;;;27.10;64.40;;;;;;5063676;28;20034;-31